Time;durP1;ratioP1;P1;durP2;ratioP2;P2;SDS_P1;SDS_P2;PMS_P1;PMS_P2;Temp;Humidity;BMP_temperature;BMP_pressure;BME280_temperature;BME280_humidity;BME280_pressure;Samples;Min_cycle;Max_cycle;Signal;HPM_P1;HPM_P2
2024/01/23 00:00:08;;;;;;;3.60;0.90;;;;;;;7.84;98.26;100025.50;335890;28;17268;-78
2024/01/23 00:00:20;;;;;;;4.45;0.88;;;;;;;7.80;98.69;100023.84;334361;28;17375;-78
2024/01/23 00:00:32;;;;;;;1.90;0.75;;;;;;;7.78;98.42;100021.28;338522;28;4523;-78
2024/01/23 00:00:45;;;;;;;1.80;0.65;;;;;;;7.77;99.03;100037.69;335879;28;18235;-78
2024/01/23 00:01:00;;;;;;;1.00;0.60;;;;;;;7.76;98.70;100022.19;334301;28;4647;-78
2024/01/23 00:01:12;;;;;;;0.93;0.70;;;;;;;7.78;98.73;100035.94;334396;28;18491;-78
2024/01/23 00:01:24;;;;;;;1.70;0.75;;;;;;;7.78;98.35;100026.44;336139;28;18477;-78
2024/01/23 00:01:42;;;;;;;2.08;0.75;;;;;;;7.81;98.83;100033.34;337678;28;4672;-78
2024/01/23 00:01:54;;;;;;;1.50;0.47;;;;;;;7.85;98.56;100027.22;335258;28;17885;-78
2024/01/23 00:02:07;;;;;;;1.00;0.30;;;;;;;7.88;98.24;100028.91;336659;28;4551;-78
2024/01/23 00:02:20;;;;;;;0.80;0.40;;;;;;;7.87;98.26;100015.13;335406;28;4710;-78
2024/01/23 00:02:32;;;;;;;1.27;0.40;;;;;;;7.88;98.40;100040.09;333958;28;4813;-78
2024/01/23 00:02:44;;;;;;;1.05;0.32;;;;;;;7.88;97.97;100053.06;335959;28;13496;-78
2024/01/23 00:02:56;;;;;;;2.50;0.45;;;;;;;7.87;98.02;100038.41;337582;28;4504;-78
2024/01/23 00:03:08;;;;;;;1.88;0.47;;;;;;;7.90;97.79;100038.34;337849;28;5792;-78
2024/01/23 00:03:22;;;;;;;1.88;0.52;;;;;;;7.92;97.66;100054.72;335139;28;18107;-79
2024/01/23 00:03:34;;;;;;;1.20;0.50;;;;;;;7.88;97.65;100068.59;334444;28;13683;-79
2024/01/23 00:03:46;;;;;;;0.90;0.30;;;;;;;7.90;97.42;100045.28;334424;28;5382;-78
2024/01/23 00:03:58;;;;;;;0.60;0.30;;;;;;;7.95;97.53;100027.94;338056;28;4796;-79
2024/01/23 00:04:10;;;;;;;0.57;0.30;;;;;;;7.96;97.28;100056.38;334686;28;18002;-78
2024/01/23 00:04:22;;;;;;;0.30;0.20;;;;;;;7.99;97.38;100020.09;337117;28;4576;-78
2024/01/23 00:04:34;;;;;;;0.30;0.20;;;;;;;8.02;97.46;100028.69;334874;28;19894;-79
2024/01/23 00:04:47;;;;;;;0.22;0.15;;;;;;;7.97;97.09;100052.91;337684;28;5429;-78
2024/01/23 00:04:59;;;;;;;0.82;0.30;;;;;;;7.94;97.30;100032.25;335049;28;4696;-78
2024/01/23 00:05:11;;;;;;;1.50;0.32;;;;;;;7.97;97.39;100031.38;338607;28;4537;-78
2024/01/23 00:05:23;;;;;;;3.35;0.47;;;;;;;7.92;97.65;100022.81;333550;28;5563;-78
2024/01/23 00:05:35;;;;;;;3.42;0.68;;;;;;;7.86;97.70;100048.78;335172;28;9197;-78
2024/01/23 00:05:47;;;;;;;2.58;0.70;;;;;;;7.86;97.94;100028.94;337808;28;5765;-79
2024/01/23 00:05:59;;;;;;;2.03;0.60;;;;;;;7.90;98.00;100051.28;337727;28;5334;-79
2024/01/23 00:06:11;;;;;;;1.50;0.70;;;;;;;7.91;97.73;100024.53;336364;28;18147;-79
2024/01/23 00:06:23;;;;;;;1.13;0.40;;;;;;;7.88;97.88;100021.16;339000;28;5723;-79
2024/01/23 00:06:35;;;;;;;1.30;0.43;;;;;;;7.83;97.86;100029.00;336164;28;19755;-79
2024/01/23 00:06:47;;;;;;;1.55;0.45;;;;;;;7.84;97.91;100015.16;334031;28;4667;-79
2024/01/23 00:06:59;;;;;;;1.67;0.40;;;;;;;7.85;98.09;100045.34;335878;28;12583;-79
2024/01/23 00:07:12;;;;;;;1.55;0.40;;;;;;;7.87;97.92;100025.47;338334;28;4658;-79
2024/01/23 00:07:24;;;;;;;2.63;0.50;;;;;;;7.87;97.91;100038.41;338708;28;4581;-79
2024/01/23 00:07:36;;;;;;;3.50;0.68;;;;;;;7.87;98.01;100028.06;335149;28;18284;-79
2024/01/23 00:07:48;;;;;;;2.13;0.68;;;;;;;7.88;97.89;100037.53;337613;28;6374;-79
2024/01/23 00:08:00;;;;;;;0.77;0.60;;;;;;;7.86;97.77;100018.56;337654;28;18163;-79
2024/01/23 00:08:12;;;;;;;2.20;0.73;;;;;;;7.91;97.71;100029.72;335214;28;17399;-79
2024/01/23 00:08:24;;;;;;;2.13;0.70;;;;;;;7.87;97.59;100059.13;333716;28;4915;-79
2024/01/23 00:08:36;;;;;;;2.28;0.50;;;;;;;7.85;97.95;100027.22;334554;28;16478;-78
2024/01/23 00:08:48;;;;;;;1.40;0.40;;;;;;;7.77;97.96;100026.50;337629;28;4694;-78
2024/01/23 00:09:00;;;;;;;1.67;0.45;;;;;;;7.71;98.18;100031.75;337091;28;4535;-78
2024/01/23 00:09:12;;;;;;;2.85;0.50;;;;;;;7.69;98.21;100025.75;334712;28;16021;-79
2024/01/23 00:09:26;;;;;;;3.33;0.57;;;;;;;7.73;98.22;100017.06;337598;28;5533;-79
2024/01/23 00:09:38;;;;;;;1.50;0.40;;;;;;;7.72;98.36;100051.56;328587;28;17897;-79
2024/01/23 00:09:50;;;;;;;0.75;0.40;;;;;;;7.71;98.33;100029.19;337011;28;4707;-78
2024/01/23 00:10:02;;;;;;;2.17;0.50;;;;;;;7.82;98.28;100032.44;333374;28;19382;-78
2024/01/23 00:10:14;;;;;;;2.25;0.60;;;;;;;7.77;98.19;100031.66;337731;28;5531;-78
2024/01/23 00:10:26;;;;;;;1.00;0.40;;;;;;;7.77;98.10;100014.41;333552;29;19099;-78
2024/01/23 00:10:38;;;;;;;1.35;0.40;;;;;;;7.82;97.98;100035.03;336659;28;4668;-78
2024/01/23 00:10:50;;;;;;;1.48;0.50;;;;;;;7.78;97.97;100020.44;336464;28;5373;-78
2024/01/23 00:11:03;;;;;;;1.00;0.43;;;;;;;7.85;98.03;100037.59;335251;28;18420;-78
2024/01/23 00:11:15;;;;;;;1.55;0.40;;;;;;;7.80;98.06;100034.19;334115;28;4617;-79
2024/01/23 00:11:27;;;;;;;1.85;0.40;;;;;;;7.74;98.26;100024.78;336221;28;10770;-78
2024/01/23 00:11:39;;;;;;;1.77;0.47;;;;;;;7.78;98.02;100020.44;338359;28;4575;-78
2024/01/23 00:11:51;;;;;;;3.03;0.52;;;;;;;7.71;98.44;100018.81;338807;28;4656;-78
2024/01/23 00:12:05;;;;;;;3.42;0.70;;;;;;;7.75;98.27;100025.66;335035;28;16128;-78
2024/01/23 00:12:17;;;;;;;1.80;0.68;;;;;;;7.78;98.20;100025.59;337114;28;10624;-78
2024/01/23 00:12:29;;;;;;;3.03;0.93;;;;;;;7.78;98.38;100035.94;339242;28;5035;-79
2024/01/23 00:12:41;;;;;;;3.55;0.88;;;;;;;7.87;98.17;100017.72;331913;28;5505;-79
2024/01/23 00:12:53;;;;;;;3.42;0.82;;;;;;;7.83;98.13;100035.88;332662;28;18271;-79
2024/01/23 00:13:05;;;;;;;2.08;0.90;;;;;;;7.75;98.46;100030.84;335491;28;4556;-79
2024/01/23 00:13:17;;;;;;;1.33;0.80;;;;;;;7.72;98.51;100011.03;333618;28;17742;-79
2024/01/23 00:13:29;;;;;;;1.00;0.57;;;;;;;7.78;98.20;100021.28;336274;28;5374;-79
2024/01/23 00:13:41;;;;;;;2.28;0.60;;;;;;;7.84;98.13;99999.63;335175;28;4715;-79
2024/01/23 00:13:53;;;;;;;2.45;0.65;;;;;;;7.84;97.80;100006.53;333884;28;17679;-78
2024/01/23 00:14:06;;;;;;;2.50;0.60;;;;;;;7.86;97.78;100017.72;337563;28;4549;-78
2024/01/23 00:14:18;;;;;;;1.50;0.68;;;;;;;7.81;97.72;100030.75;332405;28;4833;-78
2024/01/23 00:14:30;;;;;;;1.33;0.60;;;;;;;7.69;98.05;100015.41;337479;28;4869;-78
2024/01/23 00:14:42;;;;;;;1.13;0.52;;;;;;;7.75;98.09;100030.84;337616;28;4528;-78
2024/01/23 00:14:57;;;;;;;0.80;0.30;;;;;;;7.74;98.12;100031.69;335081;28;18226;-79
2024/01/23 00:15:09;;;;;;;1.55;0.45;;;;;;;7.75;98.16;100031.69;334711;28;18193;-79
2024/01/23 00:15:21;;;;;;;2.03;0.50;;;;;;;7.74;98.28;100034.28;337730;28;4553;-79
2024/01/23 00:15:35;;;;;;;2.50;0.47;;;;;;;7.75;98.38;99994.63;329331;28;18384;-79
2024/01/23 00:15:48;;;;;;;3.17;0.40;;;;;;;7.75;98.18;100025.66;334146;28;5526;-78
2024/01/23 00:16:00;;;;;;;2.47;0.50;;;;;;;7.76;98.53;100023.03;337548;28;4710;-78
2024/01/23 00:16:12;;;;;;;1.13;0.50;;;;;;;7.70;98.50;100037.81;337766;28;4728;-78
2024/01/23 00:16:24;;;;;;;1.10;0.50;;;;;;;7.71;98.54;100036.94;333811;28;18188;-78
2024/01/23 00:16:36;;;;;;;0.40;0.28;;;;;;;7.74;98.25;100024.78;337551;28;4632;-79
2024/01/23 00:16:48;;;;;;;0.22;0.20;;;;;;;7.77;98.21;100018.72;335683;28;18280;-79
2024/01/23 00:17:01;;;;;;;0.90;0.43;;;;;;;7.72;98.16;100015.34;333591;28;18082;-79
2024/01/23 00:17:13;;;;;;;1.33;0.43;;;;;;;7.82;98.34;100035.03;337291;28;4655;-79
2024/01/23 00:17:25;;;;;;;2.67;0.40;;;;;;;7.76;98.28;100002.31;333256;28;18203;-78
2024/01/23 00:17:37;;;;;;;2.35;0.40;;;;;;;7.92;98.10;100026.25;336457;28;5598;-78
2024/01/23 00:17:49;;;;;;;2.00;0.40;;;;;;;7.94;97.64;100028.81;331917;28;19562;-78
2024/01/23 00:18:01;;;;;;;0.95;0.43;;;;;;;7.87;97.59;100041.00;336150;28;4552;-78
2024/01/23 00:18:14;;;;;;;1.48;0.40;;;;;;;7.85;97.79;100042.75;333867;28;12511;-78
2024/01/23 00:18:26;;;;;;;3.97;0.40;;;;;;;7.85;97.82;100036.72;332019;28;4533;-79
2024/01/23 00:18:38;;;;;;;5.00;0.40;;;;;;;7.87;97.66;100020.28;333642;28;4759;-79
2024/01/23 00:18:51;;;;;;;2.58;0.40;;;;;;;7.83;97.77;100033.28;334378;28;17240;-79
2024/01/23 00:19:03;;;;;;;2.13;0.40;;;;;;;7.91;97.65;100032.31;336012;28;11569;-79
2024/01/23 00:19:16;;;;;;;2.03;0.40;;;;;;;7.84;97.84;100030.69;336104;28;18212;-79
2024/01/23 00:19:28;;;;;;;1.60;0.45;;;;;;;7.86;97.85;100036.69;337495;28;5052;-78
2024/01/23 00:19:40;;;;;;;1.30;0.40;;;;;;;7.90;97.73;100019.38;335351;28;18120;-78
2024/01/23 00:19:53;;;;;;;0.90;0.50;;;;;;;7.90;97.60;100014.22;337603;28;4556;-77
2024/01/23 00:20:06;;;;;;;0.88;0.43;;;;;;;7.91;97.75;100037.50;334731;28;12019;-77
2024/01/23 00:20:17;;;;;;;2.22;0.52;;;;;;;7.87;97.64;100025.47;338926;28;4530;-78
2024/01/23 00:20:29;;;;;;;3.08;0.60;;;;;;;7.83;97.89;100018.63;335183;28;5575;-78
2024/01/23 00:20:41;;;;;;;3.25;0.50;;;;;;;7.80;97.99;100016.94;337547;28;4584;-78
2024/01/23 00:20:53;;;;;;;1.95;0.63;;;;;;;7.86;98.04;100009.97;336933;28;4650;-78
2024/01/23 00:21:06;;;;;;;1.33;0.70;;;;;;;7.78;97.90;100020.44;333449;28;18772;-77
2024/01/23 00:21:18;;;;;;;1.33;0.63;;;;;;;7.81;97.67;100020.41;336526;28;4533;-78
2024/01/23 00:21:30;;;;;;;2.33;0.70;;;;;;;7.71;98.02;100024.84;331181;28;4673;-78
2024/01/23 00:21:42;;;;;;;3.53;0.82;;;;;;;7.74;98.12;100021.34;336520;28;5135;-78
2024/01/23 00:21:54;;;;;;;3.50;0.90;;;;;;;7.71;98.42;100017.09;336330;28;5288;-78
2024/01/23 00:22:06;;;;;;;1.77;0.63;;;;;;;7.71;98.55;100011.06;334946;28;17798;-78
2024/01/23 00:22:18;;;;;;;2.70;0.60;;;;;;;7.70;98.76;100017.94;337843;28;4573;-77
2024/01/23 00:22:30;;;;;;;2.85;0.57;;;;;;;7.71;98.55;100019.66;335141;28;16287;-77
2024/01/23 00:22:42;;;;;;;2.58;0.52;;;;;;;7.75;98.57;100017.91;337374;28;5087;-77
2024/01/23 00:22:55;;;;;;;1.50;0.60;;;;;;;7.71;98.44;100008.47;337717;28;4699;-77
2024/01/23 00:23:07;;;;;;;1.13;0.60;;;;;;;7.63;98.80;100015.50;333922;28;17934;-77
2024/01/23 00:23:19;;;;;;;1.25;0.43;;;;;;;7.60;98.83;100017.22;336657;28;4545;-78
2024/01/23 00:23:31;;;;;;;1.30;0.50;;;;;;;7.67;99.02;100014.56;333430;28;13409;-77
2024/01/23 00:23:43;;;;;;;1.00;0.60;;;;;;;7.65;98.69;100024.09;335231;29;4696;-77
2024/01/23 00:23:55;;;;;;;3.40;0.60;;;;;;;7.74;98.74;100023.94;335243;29;5473;-77
2024/01/23 00:24:07;;;;;;;3.10;0.47;;;;;;;7.69;98.61;100023.16;333638;28;18104;-77
2024/01/23 00:24:19;;;;;;;2.40;0.60;;;;;;;7.75;98.67;100023.06;336565;28;4523;-77
2024/01/23 00:24:31;;;;;;;1.20;0.57;;;;;;;7.75;98.34;100036.00;336517;28;5540;-77
2024/01/23 00:24:43;;;;;;;1.80;0.60;;;;;;;7.78;98.17;100015.25;333907;28;17992;-77
2024/01/23 00:24:55;;;;;;;2.15;0.60;;;;;;;7.82;98.31;100010.88;336689;28;4544;-78
2024/01/23 00:25:07;;;;;;;2.15;0.65;;;;;;;7.81;98.18;100004.88;335235;28;18113;-77
2024/01/23 00:25:19;;;;;;;1.52;0.85;;;;;;;7.76;98.23;100002.31;337644;28;5051;-78
2024/01/23 00:25:31;;;;;;;4.00;1.00;;;;;;;7.77;97.92;100024.75;338391;28;4583;-77
2024/01/23 00:25:43;;;;;;;4.57;1.00;;;;;;;7.81;97.91;100015.22;334207;28;17738;-76
2024/01/23 00:25:56;;;;;;;2.33;0.65;;;;;;;7.77;98.09;100014.41;332923;28;4674;-77
2024/01/23 00:26:08;;;;;;;2.03;0.40;;;;;;;7.78;98.06;100005.75;333414;28;18397;-76
2024/01/23 00:26:20;;;;;;;1.50;0.40;;;;;;;7.80;98.12;100029.03;336248;28;5586;-76
2024/01/23 00:26:32;;;;;;;1.65;0.40;;;;;;;7.80;97.86;100023.84;333209;28;16664;-76
2024/01/23 00:26:44;;;;;;;2.55;0.50;;;;;;;7.79;98.01;100016.97;335692;28;4594;-76
2024/01/23 00:26:56;;;;;;;2.05;0.47;;;;;;;7.82;97.74;100019.50;335903;29;4574;-76
2024/01/23 00:27:08;;;;;;;1.92;0.38;;;;;;;7.81;97.63;100025.56;333284;29;18336;-76
2024/01/23 00:27:20;;;;;;;1.50;0.40;;;;;;;7.80;97.64;100016.94;337142;28;4615;-77
2024/01/23 00:27:32;;;;;;;1.25;0.38;;;;;;;7.77;97.68;100003.19;331278;28;12411;-77
2024/01/23 00:27:45;;;;;;;2.10;0.40;;;;;;;7.80;97.73;100018.66;335454;28;18971;-76
2024/01/23 00:27:57;;;;;;;2.25;0.52;;;;;;;7.77;97.67;100034.25;337469;28;5679;-76
2024/01/23 00:28:09;;;;;;;2.55;0.70;;;;;;;7.74;97.63;100014.44;335306;28;18898;-76
2024/01/23 00:28:23;;;;;;;2.75;0.80;;;;;;;7.69;97.83;100021.44;337611;28;5301;-76
2024/01/23 00:28:35;;;;;;;2.58;0.60;;;;;;;7.70;97.81;100020.53;334248;28;19568;-76
2024/01/23 00:28:47;;;;;;;2.38;0.60;;;;;;;7.80;97.89;100013.50;337562;28;5062;-77
2024/01/23 00:28:59;;;;;;;2.75;0.50;;;;;;;7.74;97.76;100008.41;335293;28;6268;-77
2024/01/23 00:29:11;;;;;;;3.00;0.50;;;;;;;7.72;97.69;100017.94;337925;28;4561;-76
2024/01/23 00:29:24;;;;;;;2.25;0.43;;;;;;;7.71;98.21;100024.00;333864;28;13524;-76
2024/01/23 00:29:36;;;;;;;3.40;0.70;;;;;;;7.76;97.86;100001.47;335548;28;5340;-77
2024/01/23 00:29:48;;;;;;;3.10;0.75;;;;;;;7.78;97.56;100005.75;335002;28;12619;-76
2024/01/23 00:30:00;;;;;;;2.35;0.63;;;;;;;7.78;97.60;100010.91;337135;28;5342;-76
2024/01/23 00:30:13;;;;;;;2.00;0.47;;;;;;;7.85;97.34;100006.53;336911;28;4660;-76
2024/01/23 00:30:25;;;;;;;2.13;0.43;;;;;;;7.76;97.36;100014.41;328571;29;19196;-77
2024/01/23 00:30:38;;;;;;;1.98;0.38;;;;;;;7.77;97.37;100016.16;336281;28;4648;-76
2024/01/23 00:30:50;;;;;;;0.85;0.30;;;;;;;7.71;97.64;100004.16;333466;29;19408;-76
2024/01/23 00:31:02;;;;;;;0.98;0.30;;;;;;;7.73;97.89;100015.34;336168;29;4553;-77
2024/01/23 00:31:14;;;;;;;1.30;0.30;;;;;;;7.75;97.64;100010.97;333092;29;10985;-76
2024/01/23 00:31:26;;;;;;;2.08;0.50;;;;;;;7.83;97.63;100010.00;336160;29;5674;-77
2024/01/23 00:31:38;;;;;;;2.60;0.50;;;;;;;7.80;97.45;100016.09;331865;29;5693;-76
2024/01/23 00:31:50;;;;;;;1.52;0.40;;;;;;;7.74;97.48;100003.25;329312;29;4817;-77
2024/01/23 00:32:03;;;;;;;1.05;0.45;;;;;;;7.74;97.59;100005.81;333433;29;4558;-76
2024/01/23 00:32:15;;;;;;;3.03;0.47;;;;;;;7.81;97.42;100022.97;333125;29;17781;-77
2024/01/23 00:32:30;;;;;;;2.85;0.50;;;;;;;7.89;97.29;100013.38;336524;28;4669;-76
2024/01/23 00:32:43;;;;;;;0.70;0.60;;;;;;;7.85;97.14;100011.69;333399;29;17848;-77
2024/01/23 00:32:55;;;;;;;0.70;0.50;;;;;;;7.80;96.90;100010.91;333237;29;18320;-76
2024/01/23 00:33:07;;;;;;;0.73;0.43;;;;;;;7.82;96.91;100013.47;336157;29;4772;-76
2024/01/23 00:33:19;;;;;;;1.50;0.50;;;;;;;7.85;96.97;100003.94;336814;29;4698;-76
2024/01/23 00:33:31;;;;;;;2.15;0.60;;;;;;;7.74;96.93;100018.75;332000;28;18080;-77
2024/01/23 00:33:43;;;;;;;4.30;0.70;;;;;;;7.73;97.62;100011.91;334483;28;5481;-77
2024/01/23 00:33:56;;;;;;;3.42;0.63;;;;;;;7.65;97.52;99998.22;335861;28;13440;-76
2024/01/23 00:34:08;;;;;;;2.70;0.30;;;;;;;7.77;97.57;100023.91;338446;28;5349;-76
2024/01/23 00:34:20;;;;;;;0.50;0.35;;;;;;;7.86;97.17;100028.06;336244;28;16405;-77
2024/01/23 00:34:32;;;;;;;1.20;0.30;;;;;;;7.87;97.12;100007.34;338002;28;5159;-77
2024/01/23 00:34:44;;;;;;;1.33;0.30;;;;;;;7.80;96.77;100034.19;332521;28;4639;-76
2024/01/23 00:34:58;;;;;;;1.35;0.30;;;;;;;7.81;96.86;100035.91;334371;28;18402;-77
2024/01/23 00:35:10;;;;;;;0.85;0.38;;;;;;;7.81;97.01;100035.91;334506;28;13106;-77
2024/01/23 00:35:22;;;;;;;1.40;0.40;;;;;;;7.80;96.75;100029.03;337430;28;5403;-76
2024/01/23 00:35:34;;;;;;;1.33;0.47;;;;;;;7.85;96.67;100022.06;336879;28;4537;-76
2024/01/23 00:35:46;;;;;;;1.33;0.57;;;;;;;7.84;96.61;100035.00;333508;28;19174;-76
2024/01/23 00:35:58;;;;;;;1.00;0.60;;;;;;;7.80;96.51;100049.72;337414;28;4584;-76
2024/01/23 00:36:10;;;;;;;1.13;0.75;;;;;;;7.87;96.26;100041.00;333418;28;4804;-76
2024/01/23 00:36:22;;;;;;;1.73;0.63;;;;;;;7.78;96.37;100030.78;335831;28;4550;-76
2024/01/23 00:36:34;;;;;;;1.85;0.45;;;;;;;7.73;96.63;100064.50;336753;28;4681;-77
2024/01/23 00:36:46;;;;;;;1.70;0.40;;;;;;;7.83;96.41;100041.94;334914;28;19257;-77
2024/01/23 00:36:59;;;;;;;1.95;0.50;;;;;;;7.81;96.33;100020.41;336385;28;4495;-76
2024/01/23 00:37:11;;;;;;;1.23;0.40;;;;;;;7.81;96.49;100041.09;334792;28;17768;-76
2024/01/23 00:37:23;;;;;;;3.28;0.40;;;;;;;7.86;96.32;100039.28;337348;28;4725;-76
2024/01/23 00:37:35;;;;;;;4.72;0.50;;;;;;;7.79;96.29;100048.03;337589;28;6177;-76
2024/01/23 00:37:47;;;;;;;4.30;0.60;;;;;;;7.80;96.41;100070.44;334819;28;17683;-76
2024/01/23 00:37:59;;;;;;;2.97;0.43;;;;;;;7.80;96.12;100018.66;337311;28;5400;-76
2024/01/23 00:38:11;;;;;;;1.60;0.40;;;;;;;7.85;96.31;100034.13;334614;28;18000;-76
2024/01/23 00:38:23;;;;;;;2.20;0.30;;;;;;;7.83;96.06;100048.81;336058;28;5321;-76
2024/01/23 00:38:35;;;;;;;2.30;0.28;;;;;;;7.78;95.91;100026.44;336608;28;4769;-76
2024/01/23 00:38:47;;;;;;;0.77;0.20;;;;;;;7.76;96.34;100040.28;334792;28;16478;-76
2024/01/23 00:38:59;;;;;;;0.70;0.38;;;;;;;7.80;96.64;100036.78;337242;28;4518;-76
2024/01/23 00:39:11;;;;;;;0.95;0.50;;;;;;;7.69;96.66;100046.47;337201;28;4742;-76
2024/01/23 00:39:23;;;;;;;1.42;0.80;;;;;;;7.74;96.62;100023.94;334859;28;18226;-76
2024/01/23 00:39:39;;;;;;;1.95;0.77;;;;;;;7.81;96.50;100051.44;337143;28;4798;-76
2024/01/23 00:39:51;;;;;;;2.35;0.55;;;;;;;7.83;96.46;100041.03;334204;28;18138;-76
2024/01/23 00:40:04;;;;;;;2.30;0.60;;;;;;;7.82;96.41;100039.34;334820;28;17978;-76
2024/01/23 00:40:17;;;;;;;2.28;0.68;;;;;;;7.74;96.43;100035.13;337218;28;5258;-76
2024/01/23 00:40:29;;;;;;;2.13;0.77;;;;;;;7.74;96.61;100039.47;335039;28;17910;-76
2024/01/23 00:40:41;;;;;;;1.92;0.70;;;;;;;7.74;96.35;100052.41;337333;28;4706;-76
2024/01/23 00:40:53;;;;;;;2.63;0.45;;;;;;;7.75;96.26;100034.28;334843;28;18047;-76
2024/01/23 00:41:05;;;;;;;2.90;0.40;;;;;;;7.72;96.43;100046.41;337686;28;4884;-76
2024/01/23 00:41:17;;;;;;;1.30;0.40;;;;;;;7.71;96.16;100060.22;335298;28;10601;-76
2024/01/23 00:41:29;;;;;;;1.67;0.50;;;;;;;7.71;96.47;100061.06;338438;28;4769;-76
2024/01/23 00:41:41;;;;;;;3.08;0.60;;;;;;;7.62;96.31;100050.00;337131;28;5704;-76
2024/01/23 00:41:53;;;;;;;2.90;0.57;;;;;;;7.60;96.58;100078.47;334611;28;18781;-76
2024/01/23 00:42:08;;;;;;;3.13;0.80;;;;;;;7.71;96.14;100039.53;337273;28;5874;-76
2024/01/23 00:42:20;;;;;;;2.70;0.80;;;;;;;7.66;96.15;100033.56;335095;28;17945;-76
2024/01/23 00:42:32;;;;;;;3.55;0.50;;;;;;;7.63;96.27;100041.38;334464;28;16512;-76
2024/01/23 00:42:44;;;;;;;2.72;0.55;;;;;;;7.62;96.21;100040.50;337395;28;4708;-76
2024/01/23 00:42:56;;;;;;;2.10;0.52;;;;;;;7.68;96.42;100034.38;334868;28;5169;-76
2024/01/23 00:43:08;;;;;;;2.03;0.60;;;;;;;7.77;96.50;100052.38;337364;28;4687;-76
2024/01/23 00:43:20;;;;;;;2.42;0.60;;;;;;;7.81;96.02;100030.75;336004;28;5431;-76
2024/01/23 00:43:33;;;;;;;2.50;1.02;;;;;;;7.86;95.64;100039.28;329036;28;13355;-76
2024/01/23 00:43:45;;;;;;;2.58;0.93;;;;;;;7.80;95.45;100060.06;336633;28;4646;-76
2024/01/23 00:43:57;;;;;;;5.00;0.93;;;;;;;7.81;95.29;100072.16;336644;28;4782;-76
2024/01/23 00:44:09;;;;;;;4.25;0.45;;;;;;;7.83;95.11;100059.16;334466;28;19114;-77
2024/01/23 00:44:21;;;;;;;3.20;0.43;;;;;;;7.83;95.25;100029.00;337334;28;4591;-76
2024/01/23 00:44:33;;;;;;;2.33;0.43;;;;;;;7.86;95.14;100039.28;334430;28;13389;-77
2024/01/23 00:44:45;;;;;;;2.25;0.63;;;;;;;7.84;95.10;100048.78;337473;28;4868;-76
2024/01/23 00:44:57;;;;;;;2.60;0.68;;;;;;;7.86;95.20;100044.47;332462;28;5299;-76
2024/01/23 00:45:09;;;;;;;2.15;0.70;;;;;;;7.83;95.12;100025.53;335068;28;18158;-76
2024/01/23 00:45:21;;;;;;;0.85;0.35;;;;;;;7.84;95.26;100030.69;337473;28;5496;-76
2024/01/23 00:45:33;;;;;;;1.75;0.38;;;;;;;7.83;95.05;100034.16;335103;28;17192;-76
2024/01/23 00:45:45;;;;;;;2.30;0.40;;;;;;;7.74;95.53;100055.00;337949;28;4488;-76
2024/01/23 00:46:00;;;;;;;2.60;0.47;;;;;;;7.79;95.67;100002.28;334583;28;18976;-76
2024/01/23 00:46:12;;;;;;;1.67;0.43;;;;;;;7.75;95.67;100030.84;335873;28;4969;-76
2024/01/23 00:46:24;;;;;;;2.05;0.50;;;;;;;7.77;95.49;100036.84;333360;28;14028;-76
2024/01/23 00:46:36;;;;;;;1.23;0.50;;;;;;;7.69;95.71;100041.28;334160;28;17940;-76
2024/01/23 00:46:48;;;;;;;1.35;0.70;;;;;;;7.68;95.88;100019.72;337148;28;4748;-76
2024/01/23 00:47:00;;;;;;;1.55;0.73;;;;;;;7.77;95.78;100013.56;334706;28;18332;-76
2024/01/23 00:47:12;;;;;;;2.13;0.65;;;;;;;7.75;95.75;100067.06;337531;28;5540;-76
2024/01/23 00:47:24;;;;;;;2.50;0.55;;;;;;;7.74;95.68;100055.00;334335;28;4637;-76
2024/01/23 00:47:37;;;;;;;2.03;0.57;;;;;;;7.71;95.88;100042.13;337300;28;4633;-76
2024/01/23 00:47:49;;;;;;;0.95;0.45;;;;;;;7.76;95.63;100053.22;329999;28;13744;-76
2024/01/23 00:48:02;;;;;;;1.48;0.40;;;;;;;7.81;95.56;100035.91;337117;28;5443;-76
2024/01/23 00:48:14;;;;;;;1.80;0.38;;;;;;;7.73;95.62;100048.13;334265;28;13435;-76
2024/01/23 00:48:26;;;;;;;3.03;0.40;;;;;;;7.79;95.72;100042.84;336043;28;5630;-76
2024/01/23 00:48:38;;;;;;;2.80;0.40;;;;;;;7.83;95.44;100029.00;335978;28;4533;-76
2024/01/23 00:48:51;;;;;;;1.70;0.30;;;;;;;7.84;95.10;100041.03;334675;28;17946;-76
2024/01/23 00:49:03;;;;;;;1.40;0.28;;;;;;;7.88;94.55;100032.34;337259;28;4623;-76
2024/01/23 00:49:15;;;;;;;0.82;0.30;;;;;;;7.90;95.07;100061.66;334354;28;12887;-76
2024/01/23 00:49:27;;;;;;;0.93;0.40;;;;;;;7.90;95.00;100020.22;335851;29;5466;-76
2024/01/23 00:49:39;;;;;;;0.63;0.30;;;;;;;7.88;95.05;100029.75;337258;28;4749;-76
2024/01/23 00:49:52;;;;;;;0.75;0.30;;;;;;;7.85;95.12;100050.53;334427;28;17558;-76
2024/01/23 00:50:04;;;;;;;1.67;0.45;;;;;;;7.83;94.91;100060.03;336925;28;4519;-76
2024/01/23 00:50:17;;;;;;;2.80;0.70;;;;;;;7.84;95.23;100041.03;334831;28;17988;-76
2024/01/23 00:50:29;;;;;;;3.10;0.95;;;;;;;7.80;95.44;100065.25;336463;28;5294;-76
2024/01/23 00:50:41;;;;;;;4.65;0.90;;;;;;;7.76;95.61;100032.53;329221;28;17797;-76
2024/01/23 00:50:53;;;;;;;3.95;0.57;;;;;;;7.78;95.37;100041.13;337289;28;4693;-76
2024/01/23 00:51:05;;;;;;;1.15;0.32;;;;;;;7.82;95.23;100042.78;334613;28;18450;-76
2024/01/23 00:51:17;;;;;;;1.73;0.40;;;;;;;7.82;95.23;100035.03;336963;28;5555;-76
2024/01/23 00:51:29;;;;;;;1.70;0.40;;;;;;;7.79;95.20;100055.78;335166;28;8936;-76
2024/01/23 00:51:41;;;;;;;1.50;0.40;;;;;;;7.76;95.20;100046.31;333749;28;17641;-76
2024/01/23 00:51:53;;;;;;;1.30;0.38;;;;;;;7.74;95.34;100049.81;337231;28;5426;-76
2024/01/23 00:52:05;;;;;;;3.95;0.50;;;;;;;7.78;95.63;100038.53;334364;28;11046;-76
2024/01/23 00:52:17;;;;;;;3.97;0.55;;;;;;;7.80;95.36;100027.28;332790;28;5049;-76
2024/01/23 00:52:29;;;;;;;2.83;0.63;;;;;;;7.81;95.33;100028.16;336732;28;5270;-76
2024/01/23 00:52:42;;;;;;;3.78;0.80;;;;;;;7.87;95.14;100004.78;329960;28;17967;-76
2024/01/23 00:52:54;;;;;;;2.38;0.40;;;;;;;7.87;94.82;100045.31;335102;28;4534;-76
2024/01/23 00:53:06;;;;;;;0.20;0.20;;;;;;;7.94;94.70;100032.25;332553;28;5329;-76
2024/01/23 00:53:18;;;;;;;0.85;0.25;;;;;;;7.94;94.66;100036.56;334868;29;4854;-76
2024/01/23 00:53:30;;;;;;;1.63;0.30;;;;;;;7.93;94.57;100030.56;334889;29;4659;-76
2024/01/23 00:53:42;;;;;;;3.45;0.50;;;;;;;7.89;94.44;100013.38;331261;28;18033;-76
2024/01/23 00:53:54;;;;;;;3.58;0.70;;;;;;;7.85;94.82;100037.59;337629;28;5557;-76
2024/01/23 00:54:06;;;;;;;2.53;0.75;;;;;;;7.82;94.83;100032.44;333793;28;5279;-76
2024/01/23 00:54:18;;;;;;;1.08;0.50;;;;;;;7.86;94.94;100018.56;335596;29;4641;-76
2024/01/23 00:54:30;;;;;;;1.85;0.47;;;;;;;7.87;94.73;100028.06;332777;29;4559;-76
2024/01/23 00:54:42;;;;;;;2.70;0.40;;;;;;;7.82;94.96;100026.41;329471;29;18193;-76
2024/01/23 00:54:58;;;;;;;3.17;0.40;;;;;;;7.82;95.11;100032.44;333432;29;5438;-76
2024/01/23 00:55:11;;;;;;;2.35;0.40;;;;;;;7.73;95.05;100022.25;331812;29;18110;-76
2024/01/23 00:55:22;;;;;;;3.40;0.35;;;;;;;7.75;95.21;100051.53;333609;29;17398;-76
2024/01/23 00:55:34;;;;;;;3.53;0.40;;;;;;;7.72;95.36;100033.47;335619;28;5442;-76
2024/01/23 00:55:47;;;;;;;1.65;0.30;;;;;;;7.68;95.47;100049.91;332722;29;11777;-76
2024/01/23 00:55:59;;;;;;;2.10;0.30;;;;;;;7.72;95.40;100044.66;334851;29;4715;-76
2024/01/23 00:56:11;;;;;;;3.00;0.40;;;;;;;7.71;95.52;100044.69;334758;29;4679;-76
2024/01/23 00:56:23;;;;;;;1.90;0.40;;;;;;;7.76;95.51;100027.34;333045;29;18122;-76
2024/01/23 00:56:36;;;;;;;1.08;0.38;;;;;;;7.82;95.47;100049.72;331597;28;5757;-76
2024/01/23 00:56:48;;;;;;;0.90;0.30;;;;;;;7.80;95.11;100029.88;333556;28;18236;-76
2024/01/23 00:57:00;;;;;;;0.98;0.38;;;;;;;7.83;95.15;100039.34;336627;28;4749;-76
2024/01/23 00:57:12;;;;;;;1.30;0.45;;;;;;;7.85;94.71;100062.59;333709;28;17708;-76
2024/01/23 00:57:24;;;;;;;3.30;0.50;;;;;;;7.90;94.58;100012.47;337195;28;4603;-76
2024/01/23 00:57:36;;;;;;;2.90;0.55;;;;;;;7.94;94.25;100034.00;337310;28;4521;-76
2024/01/23 00:57:48;;;;;;;2.78;0.50;;;;;;;7.93;94.26;100040.91;334273;28;18078;-76
2024/01/23 00:58:00;;;;;;;1.50;0.50;;;;;;;7.91;94.14;100047.84;334028;28;4826;-76
2024/01/23 00:58:13;;;;;;;1.38;0.47;;;;;;;7.89;93.94;100052.19;335483;28;17985;-76
2024/01/23 00:58:25;;;;;;;0.90;0.43;;;;;;;7.87;94.76;100033.25;338134;28;4566;-76
2024/01/23 00:58:37;;;;;;;0.20;0.20;;;;;;;7.84;94.36;100050.53;335269;28;16324;-76
2024/01/23 00:58:49;;;;;;;1.20;0.38;;;;;;;7.84;94.46;100020.34;338094;28;4677;-76